West Point, KY (40177)

8:22 PM EST on February 05, 2016 (GMT -0500)
Godman Army Air Field | | Change Station
CLOSE
Current Station
Airport
Location: Fort Knox,
Elevation: 755 ft
Nearby Weather Stations

Elev 755 ft 37.91 °N, 85.97 °W | Updated 24 minutes ago

Clear
Clear
35 °F
Feels Like 35 °F
N
2
Wind Variable Wind from South

Today
High -- | Low -- °F
--% Chance of Precip.
Yesterday
High -- | Low -- °F
Precip. -- in
Pressure 30.39 in
Visibility 10.0 miles
Clouds Clear
Dew Point 21 °F
Humidity 57%
Rainfall 0.00 in
Snow Depth Not available.
7:45 AM 6:11 PM
Waning Crescent, 8% visible
METAR KFTK 060058Z AUTO 19002KT 10SM CLR 02/M06 A3035 RMK AO2 SLP289 T00161061
Pressure 30.39 in
Visibility 10.0 miles
Clouds Clear
Dew Point 21 °F
Humidity 57%
Rainfall 0.00 in
Snow Depth Not available.
7:45 AM 6:11 PM
Waning Crescent, 8% visible
METAR KFTK 060058Z AUTO 19002KT 10SM CLR 02/M06 A3035 RMK AO2 SLP289 T00161061

10-Day Weather Forecast

Almanac

Astronomy

Feb. 05, 2016 Rise Set
Actual Time
Civil Twilight
Nautical Twilight
Astronomical Twilight
Moon
Length of Visible Light
Length of Day
Tomorrow will be .
, % of the Moon is Illuminated

Today's Extremes

State Highs State Lows

Community

WunderPhotos

Upload Photos

1,890,904 photos uploaded!

WunderBlog® & News

Nearby

Air Quality

  Air Quality AQ Index Pollutant
Not available.

Snow Depth

Station Depth Elevation

Earthquake Activity

City Distance Mag. Time & Date
Minimum magnitude displayed is 2.5.

Coastal Water Temperatures

Place Temperature

Stations

Nearby Weather Stations

Station Location Temp. Windchill Dew Point Humidity Wind Precip. Elev Updated Type
                   

Watches & Warnings

There are currently no watches in effect.